Time;durP1;ratioP1;P1;durP2;ratioP2;P2;SDS_P1;SDS_P2;PMS_P1;PMS_P2;Temp;Humidity;BMP_temperature;BMP_pressure;BME280_temperature;BME280_humidity;BME280_pressure;Samples;Min_cycle;Max_cycle;Signal;HPM_P1;HPM_P2
2023/04/06 00:01:55;;;;;;;9.73;8.30;;;2.40;99.90;;;;;;4977826;28;20038;-85
2023/04/06 00:04:21;;;;;;;10.13;8.70;;;2.40;99.90;;;;;;5009441;28;20256;-84
2023/04/06 00:06:46;;;;;;;11.67;9.07;;;2.40;99.90;;;;;;4948448;28;20550;-85
2023/04/06 00:09:12;;;;;;;11.27;8.70;;;2.30;99.90;;;;;;5012926;28;20081;-85
2023/04/06 00:11:38;;;;;;;9.50;8.37;;;2.30;99.90;;;;;;5012450;28;20397;-85
2023/04/06 00:14:03;;;;;;;14.57;8.70;;;2.20;99.90;;;;;;4975815;28;20038;-85
2023/04/06 00:16:29;;;;;;;11.13;8.80;;;2.20;99.90;;;;;;4974362;28;20045;-85
2023/04/06 00:18:55;;;;;;;10.73;8.27;;;2.20;99.90;;;;;;5000006;28;20568;-85
2023/04/06 00:21:20;;;;;;;9.50;8.33;;;2.10;99.90;;;;;;4996818;28;20125;-85
2023/04/06 00:23:46;;;;;;;9.20;8.13;;;2.10;99.90;;;;;;4964949;28;20505;-85
2023/04/06 00:26:12;;;;;;;8.83;7.93;;;2.00;99.90;;;;;;4976905;28;20054;-85
2023/04/06 00:28:37;;;;;;;9.43;8.43;;;2.00;99.90;;;;;;4977704;28;20379;-85
2023/04/06 00:31:03;;;;;;;9.67;8.67;;;1.90;99.90;;;;;;4996225;28;20120;-85
2023/04/06 00:33:29;;;;;;;9.10;8.17;;;1.90;99.90;;;;;;4960648;28;20130;-84
2023/04/06 00:35:55;;;;;;;10.80;9.03;;;1.90;99.90;;;;;;4966903;28;20129;-86
2023/04/06 00:38:21;;;;;;;9.17;8.17;;;1.80;99.90;;;;;;4963481;28;20519;-85
2023/04/06 00:40:47;;;;;;;13.20;8.53;;;1.80;99.90;;;;;;4990969;28;20038;-85
2023/04/06 00:43:14;;;;;;;11.23;8.23;;;1.80;99.90;;;;;;5005284;28;20046;-86
2023/04/06 00:45:41;;;;;;;9.93;8.53;;;1.70;99.90;;;;;;4992218;28;20050;-86
2023/04/06 00:48:07;;;;;;;9.67;8.67;;;1.70;99.90;;;;;;4992062;28;20041;-85
2023/04/06 00:50:33;;;;;;;10.90;8.53;;;1.60;99.90;;;;;;4992498;28;20125;-85
2023/04/06 00:53:00;;;;;;;9.33;8.33;;;1.60;99.90;;;;;;4988602;28;20418;-85
2023/04/06 00:55:29;;;;;;;10.67;8.43;;;1.60;99.90;;;;;;4995492;28;20042;-85
2023/04/06 00:57:58;;;;;;;11.33;8.67;;;1.50;99.90;;;;;;5008226;28;20433;-85
2023/04/06 01:00:24;;;;;;;10.07;8.37;;;1.50;99.90;;;;;;5011877;28;20481;-86
2023/04/06 01:02:50;;;;;;;10.07;8.17;;;1.50;99.90;;;;;;4995937;28;20124;-85
2023/04/06 01:05:16;;;;;;;11.60;8.40;;;1.50;99.90;;;;;;5012211;28;20132;-86
2023/04/06 01:07:42;;;;;;;11.23;9.17;;;1.40;99.90;;;;;;5011738;28;20038;-85
2023/04/06 01:10:08;;;;;;;11.17;8.80;;;1.40;99.90;;;;;;4975296;28;20038;-85
2023/04/06 01:12:34;;;;;;;11.07;8.63;;;1.40;99.90;;;;;;4995446;28;20038;-85
2023/04/06 01:14:59;;;;;;;9.13;8.07;;;1.40;99.90;;;;;;5011613;28;20048;-85
2023/04/06 01:17:25;;;;;;;10.10;8.77;;;1.40;99.90;;;;;;5011743;28;20074;-85
2023/04/06 01:19:53;;;;;;;10.50;8.80;;;1.40;99.90;;;;;;4998027;28;20045;-85
2023/04/06 01:22:20;;;;;;;9.40;8.40;;;1.30;99.90;;;;;;5006784;28;20052;-85
2023/04/06 01:24:46;;;;;;;10.10;8.63;;;1.30;99.90;;;;;;4998236;28;20447;-85
2023/04/06 01:27:12;;;;;;;10.77;8.70;;;1.30;99.90;;;;;;4995924;28;20042;-85
2023/04/06 01:29:41;;;;;;;12.17;9.80;;;1.30;99.90;;;;;;4988811;28;20066;-85
2023/04/06 01:32:07;;;;;;;14.90;9.60;;;1.30;99.90;;;;;;4978193;28;20402;-86
2023/04/06 01:34:33;;;;;;;12.23;9.30;;;1.20;99.90;;;;;;5008349;28;20107;-85
2023/04/06 01:36:58;;;;;;;10.53;8.83;;;1.20;99.90;;;;;;5008526;28;20481;-85
2023/04/06 01:39:24;;;;;;;12.80;9.60;;;1.20;99.90;;;;;;5011065;28;20056;-85
2023/04/06 01:41:50;;;;;;;11.10;8.83;;;1.20;99.90;;;;;;5000018;28;20530;-85
2023/04/06 01:44:19;;;;;;;10.23;8.57;;;1.20;99.90;;;;;;4945386;28;20517;-85
2023/04/06 01:46:45;;;;;;;10.57;9.07;;;1.20;99.90;;;;;;4980708;28;20125;-85
2023/04/06 01:49:12;;;;;;;12.40;8.07;;;1.20;99.90;;;;;;4964413;28;20499;-85
2023/04/06 01:51:37;;;;;;;12.13;8.50;;;1.20;99.90;;;;;;5007822;28;20056;-85
2023/04/06 01:54:03;;;;;;;9.83;8.83;;;1.10;99.90;;;;;;4994928;28;20401;-85
2023/04/06 01:56:29;;;;;;;12.03;9.13;;;1.20;99.90;;;;;;5011061;28;20037;-86
2023/04/06 01:58:55;;;;;;;10.07;9.00;;;1.20;99.90;;;;;;5011130;28;20642;-85
2023/04/06 02:01:21;;;;;;;11.33;9.17;;;1.20;99.90;;;;;;4978913;28;20056;-85
2023/04/06 02:03:47;;;;;;;10.40;9.10;;;1.10;99.90;;;;;;5001936;28;20414;-85
2023/04/06 02:06:12;;;;;;;12.00;9.60;;;1.10;99.90;;;;;;4999381;28;20045;-85
2023/04/06 02:08:38;;;;;;;11.77;9.70;;;1.10;99.90;;;;;;4981167;28;20137;-85
2023/04/06 02:11:04;;;;;;;12.07;8.97;;;1.00;99.90;;;;;;4986107;28;20034;-85
2023/04/06 02:13:30;;;;;;;16.43;9.40;;;1.00;99.90;;;;;;5000997;28;20030;-84
2023/04/06 02:15:56;;;;;;;10.30;8.73;;;1.00;99.90;;;;;;4975516;28;20038;-85
2023/04/06 02:18:22;;;;;;;9.70;8.77;;;1.00;99.90;;;;;;4959433;28;20411;-85
2023/04/06 02:20:48;;;;;;;9.80;8.60;;;1.00;99.90;;;;;;4995441;28;20042;-85
2023/04/06 02:23:14;;;;;;;12.03;9.03;;;1.00;99.90;;;;;;4959095;28;20042;-85
2023/04/06 02:25:40;;;;;;;10.57;8.90;;;0.90;99.90;;;;;;4982992;28;20037;-85
2023/04/06 02:28:06;;;;;;;12.73;9.20;;;0.90;99.90;;;;;;4990236;28;20128;-85
2023/04/06 02:30:32;;;;;;;11.77;8.90;;;0.90;99.90;;;;;;4981312;28;20128;-85
2023/04/06 02:33:02;;;;;;;10.27;9.07;;;0.90;99.90;;;;;;4961358;28;20190;-84
2023/04/06 02:35:28;;;;;;;12.07;9.47;;;0.90;99.90;;;;;;4993723;28;20030;-85
2023/04/06 02:37:54;;;;;;;10.40;8.83;;;0.90;99.90;;;;;;4991276;28;20045;-85
2023/04/06 02:40:20;;;;;;;11.23;9.13;;;1.00;99.90;;;;;;4944770;28;20047;-85
2023/04/06 02:42:46;;;;;;;11.67;9.90;;;0.90;99.90;;;;;;4989699;28;20049;-85
2023/04/06 02:45:11;;;;;;;10.83;9.03;;;0.90;99.90;;;;;;4980924;28;20038;-85
2023/04/06 02:47:37;;;;;;;11.23;9.23;;;0.90;99.90;;;;;;4981861;28;20129;-85
2023/04/06 02:50:03;;;;;;;10.33;9.13;;;0.90;99.90;;;;;;4997922;28;20410;-85
2023/04/06 02:52:29;;;;;;;10.23;9.10;;;0.80;99.90;;;;;;4988728;28;20573;-85
2023/04/06 02:54:55;;;;;;;10.30;9.20;;;0.80;99.90;;;;;;4986515;28;20567;-85
2023/04/06 02:57:20;;;;;;;10.67;9.57;;;0.80;99.90;;;;;;4963066;28;20426;-85
2023/04/06 02:59:46;;;;;;;10.83;9.50;;;0.80;99.90;;;;;;4989526;28;20065;-85
2023/04/06 03:02:12;;;;;;;12.03;9.17;;;0.80;99.90;;;;;;4991704;28;20133;-85
2023/04/06 03:04:38;;;;;;;11.80;9.63;;;0.80;99.90;;;;;;4974877;28;20122;-85
2023/04/06 03:07:03;;;;;;;11.30;9.00;;;0.80;99.90;;;;;;4993939;28;20038;-85
2023/04/06 03:09:29;;;;;;;10.40;9.30;;;0.80;99.90;;;;;;4988148;28;20057;-85
2023/04/06 03:11:55;;;;;;;10.10;9.10;;;0.80;99.90;;;;;;4982517;28;20129;-84
2023/04/06 03:14:22;;;;;;;12.10;9.10;;;0.80;99.90;;;;;;4982120;28;20056;-85
2023/04/06 03:16:48;;;;;;;11.23;9.60;;;0.90;99.90;;;;;;5006897;28;20127;-85
2023/04/06 03:19:15;;;;;;;11.20;9.70;;;0.80;99.90;;;;;;4981786;28;20049;-85
2023/04/06 03:21:41;;;;;;;10.93;9.40;;;0.80;99.90;;;;;;5004345;28;20082;-85
2023/04/06 03:24:07;;;;;;;13.37;10.30;;;0.80;99.90;;;;;;5011102;28;20076;-85
2023/04/06 03:26:33;;;;;;;11.33;9.43;;;0.80;99.90;;;;;;4997210;28;20111;-85
2023/04/06 03:28:59;;;;;;;11.37;9.77;;;0.80;99.90;;;;;;4978591;28;20512;-85
2023/04/06 03:31:26;;;;;;;12.60;9.80;;;0.80;99.90;;;;;;4990315;28;20034;-85
2023/04/06 03:33:51;;;;;;;10.60;9.10;;;0.80;99.90;;;;;;4997252;28;20038;-85
2023/04/06 03:36:17;;;;;;;10.70;9.60;;;0.80;99.90;;;;;;4999078;28;20046;-84
2023/04/06 03:38:43;;;;;;;10.67;9.60;;;0.80;99.90;;;;;;5009952;28;20041;-85
2023/04/06 03:41:08;;;;;;;11.67;9.50;;;0.80;99.90;;;;;;5002669;28;20662;-85
2023/04/06 03:43:34;;;;;;;14.63;9.93;;;0.80;99.90;;;;;;5003299;28;20046;-85
2023/04/06 03:46:00;;;;;;;11.37;9.97;;;0.90;99.90;;;;;;4988226;28;20045;-85
2023/04/06 03:48:26;;;;;;;11.47;9.93;;;0.80;99.90;;;;;;4994427;28;20038;-85
2023/04/06 03:50:51;;;;;;;12.87;10.20;;;0.90;99.90;;;;;;4989041;28;20041;-85
2023/04/06 03:53:17;;;;;;;14.00;9.93;;;0.80;99.90;;;;;;4997128;28;20525;-85
2023/04/06 03:55:43;;;;;;;12.07;9.47;;;0.80;99.90;;;;;;4977902;28;20045;-84
2023/04/06 03:58:09;;;;;;;13.00;10.43;;;0.70;99.90;;;;;;4977473;28;20124;-84
2023/04/06 04:00:35;;;;;;;11.27;10.03;;;0.70;99.90;;;;;;4986660;28;20053;-85
2023/04/06 04:03:02;;;;;;;16.87;10.17;;;0.70;99.90;;;;;;5011734;28;20053;-84
2023/04/06 04:05:28;;;;;;;10.83;9.23;;;0.60;99.90;;;;;;4989343;28;20049;-84
2023/04/06 04:07:53;;;;;;;12.87;10.27;;;0.60;99.90;;;;;;4985942;28;20078;-84
2023/04/06 04:10:19;;;;;;;11.77;10.00;;;0.60;99.90;;;;;;4986514;28;20525;-85
2023/04/06 04:12:45;;;;;;;13.13;9.90;;;0.60;99.90;;;;;;4996812;28;20042;-85
2023/04/06 04:15:10;;;;;;;13.30;10.07;;;0.60;99.90;;;;;;4997149;28;20109;-85
2023/04/06 04:17:36;;;;;;;11.40;9.83;;;0.60;99.90;;;;;;4958443;28;20034;-85
2023/04/06 04:20:02;;;;;;;12.93;10.33;;;0.50;99.90;;;;;;5002042;28;20042;-84
2023/04/06 04:22:28;;;;;;;15.23;10.80;;;0.50;99.90;;;;;;4989847;28;20121;-86
2023/04/06 04:24:53;;;;;;;11.77;10.07;;;0.50;99.90;;;;;;4982530;28;20038;-84
2023/04/06 04:27:20;;;;;;;13.93;10.40;;;0.50;99.90;;;;;;4986198;28;20065;-85
2023/04/06 04:29:46;;;;;;;11.83;10.63;;;0.60;99.90;;;;;;4981360;28;20470;-84
2023/04/06 04:32:11;;;;;;;12.70;10.73;;;0.50;99.90;;;;;;5007404;28;20092;-85
2023/04/06 04:34:40;;;;;;;13.03;11.70;;;0.50;99.90;;;;;;4976427;28;20037;-84
2023/04/06 04:37:06;;;;;;;14.63;11.10;;;0.60;99.90;;;;;;4998431;28;20078;-85
2023/04/06 04:39:32;;;;;;;12.97;11.23;;;0.60;99.90;;;;;;4993819;28;20497;-85
2023/04/06 04:41:58;;;;;;;14.47;10.57;;;0.60;99.90;;;;;;4996499;28;20397;-84
2023/04/06 04:44:24;;;;;;;14.90;11.87;;;0.60;99.90;;;;;;4996212;28;20060;-84
2023/04/06 04:46:49;;;;;;;13.50;11.30;;;0.70;99.90;;;;;;5012741;28;20044;-85
2023/04/06 04:49:15;;;;;;;15.47;11.73;;;0.70;99.90;;;;;;4983797;28;20572;-84
2023/04/06 04:51:41;;;;;;;13.57;11.60;;;0.70;99.90;;;;;;4986286;28;20041;-85
2023/04/06 04:54:07;;;;;;;16.30;11.10;;;0.70;99.90;;;;;;5000216;28;20177;-85
2023/04/06 04:56:32;;;;;;;12.93;11.07;;;0.70;99.90;;;;;;4980289;28;20073;-85
2023/04/06 04:58:58;;;;;;;12.67;11.37;;;0.70;99.90;;;;;;4995242;28;20048;-84
2023/04/06 05:01:24;;;;;;;14.17;12.33;;;0.70;99.90;;;;;;4999308;28;20045;-85
2023/04/06 05:03:50;;;;;;;13.23;11.23;;;0.60;99.90;;;;;;4978444;28;20048;-84
2023/04/06 05:06:15;;;;;;;15.03;11.30;;;0.70;99.90;;;;;;4985578;28;20531;-85
2023/04/06 05:08:42;;;;;;;14.07;11.17;;;0.60;99.90;;;;;;4988984;28;20042;-85
2023/04/06 05:11:09;;;;;;;13.93;12.10;;;0.70;99.90;;;;;;4975775;28;20038;-85
2023/04/06 05:13:35;;;;;;;14.50;12.10;;;0.70;99.90;;;;;;4989051;28;20103;-85
2023/04/06 05:16:00;;;;;;;18.07;11.67;;;0.80;99.90;;;;;;4994836;28;20087;-85
2023/04/06 05:18:26;;;;;;;13.73;11.50;;;0.80;99.90;;;;;;4983084;28;20321;-85
2023/04/06 05:20:52;;;;;;;15.13;11.73;;;0.80;99.90;;;;;;4976540;28;20056;-84
2023/04/06 05:23:18;;;;;;;13.80;11.93;;;0.80;99.90;;;;;;4994911;28;20042;-85
2023/04/06 05:25:43;;;;;;;14.50;11.60;;;0.80;99.90;;;;;;4973430;28;20038;-84
2023/04/06 05:28:09;;;;;;;15.13;11.87;;;0.80;99.90;;;;;;4989712;28;20037;-85
2023/04/06 05:30:35;;;;;;;17.03;12.20;;;0.90;99.90;;;;;;4994459;28;20048;-86
2023/04/06 05:33:02;;;;;;;15.47;12.13;;;0.90;99.90;;;;;;4985956;28;20458;-85
2023/04/06 05:35:27;;;;;;;14.37;12.03;;;0.90;99.90;;;;;;4986211;28;20038;-86
2023/04/06 05:37:53;;;;;;;15.27;12.63;;;1.00;99.90;;;;;;4963693;28;20497;-86
2023/04/06 05:40:19;;;;;;;14.13;12.50;;;1.00;99.90;;;;;;4962068;28;20049;-86
2023/04/06 05:42:44;;;;;;;17.93;12.07;;;1.10;99.90;;;;;;5001585;28;20422;-86
2023/04/06 05:45:16;;;;;;;14.80;11.97;;;1.10;99.90;;;;;;4977001;28;20100;-86
2023/04/06 05:47:43;;;;;;;14.20;11.45;;;1.20;99.90;;;;;;5008793;28;20043;-86
2023/04/06 05:50:10;;;;;;;17.03;12.97;;;1.20;99.90;;;;;;5004541;28;20097;-86
2023/04/06 05:52:35;;;;;;;15.37;12.07;;;1.30;99.90;;;;;;4994918;28;20034;-86
2023/04/06 05:55:01;;;;;;;17.10;12.20;;;1.30;99.90;;;;;;5011193;28;20596;-86
2023/04/06 05:57:27;;;;;;;17.57;13.00;;;1.40;99.90;;;;;;5011224;28;20045;-86
2023/04/06 05:59:53;;;;;;;14.20;12.03;;;1.50;99.90;;;;;;4994589;28;20560;-87
2023/04/06 06:02:19;;;;;;;17.10;12.27;;;1.50;99.90;;;;;;4986275;28;20052;-86
2023/04/06 06:04:44;;;;;;;16.27;12.80;;;1.60;99.90;;;;;;5008220;28;20130;-85
2023/04/06 06:07:10;;;;;;;15.83;12.20;;;1.60;99.90;;;;;;4968701;28;20127;-87
2023/04/06 06:09:36;;;;;;;16.37;12.47;;;1.70;99.90;;;;;;4958204;28;20038;-86
2023/04/06 06:12:02;;;;;;;13.47;11.93;;;1.80;99.90;;;;;;4988680;28;20077;-87
2023/04/06 06:14:28;;;;;;;16.03;12.33;;;1.80;99.90;;;;;;4994679;28;20045;-86
2023/04/06 06:16:54;;;;;;;15.03;12.63;;;1.90;99.90;;;;;;4961616;28;20031;-87
2023/04/06 06:19:20;;;;;;;15.57;12.77;;;2.00;99.90;;;;;;4968163;28;20038;-86
2023/04/06 06:21:46;;;;;;;20.73;13.43;;;2.00;99.90;;;;;;4984040;28;20417;-86
2023/04/06 06:24:11;;;;;;;16.17;12.43;;;2.10;99.90;;;;;;4997960;28;20042;-86
2023/04/06 06:26:39;;;;;;;17.90;13.00;;;2.20;99.90;;;;;;4988152;28;20042;-86
2023/04/06 06:29:05;;;;;;;15.73;11.63;;;2.20;99.90;;;;;;4959804;28;20121;-86
2023/04/06 06:31:31;;;;;;;16.57;13.00;;;2.30;99.90;;;;;;4974980;28;20050;-86
2023/04/06 06:33:57;;;;;;;14.50;12.60;;;2.40;99.90;;;;;;4995881;28;20089;-87
2023/04/06 06:36:23;;;;;;;16.33;12.67;;;2.50;99.90;;;;;;4978382;28;20131;-86
2023/04/06 06:38:49;;;;;;;15.07;12.47;;;2.50;99.90;;;;;;5011558;28;20092;-86
2023/04/06 06:41:15;;;;;;;16.53;12.43;;;2.60;99.90;;;;;;4998814;28;20131;-86
2023/04/06 06:43:41;;;;;;;18.23;12.90;;;2.60;99.90;;;;;;4982296;28;20045;-86
2023/04/06 06:46:07;;;;;;;17.20;12.33;;;2.80;99.90;;;;;;4981951;28;20136;-87
2023/04/06 06:48:33;;;;;;;14.57;13.00;;;2.80;99.90;;;;;;4965306;28;20609;-86
2023/04/06 06:50:58;;;;;;;18.90;13.10;;;2.90;99.90;;;;;;5011555;28;20054;-86
2023/04/06 06:53:24;;;;;;;15.03;12.00;;;3.00;99.90;;;;;;4991040;28;20505;-85
2023/04/06 06:55:50;;;;;;;18.97;13.87;;;3.10;99.90;;;;;;4997694;28;20081;-86
2023/04/06 06:58:19;;;;;;;14.43;12.93;;;3.10;99.90;;;;;;4970461;28;20406;-86
2023/04/06 07:00:45;;;;;;;18.83;13.60;;;3.20;99.90;;;;;;4978680;28;20046;-86
2023/04/06 07:03:10;;;;;;;15.53;13.00;;;3.30;99.90;;;;;;4962575;28;20046;-86
2023/04/06 07:05:36;;;;;;;15.63;13.10;;;3.40;99.90;;;;;;4987589;28;20129;-86
2023/04/06 07:08:02;;;;;;;15.80;12.67;;;3.40;99.90;;;;;;4986578;28;20042;-86
2023/04/06 07:10:27;;;;;;;15.90;13.43;;;3.50;99.90;;;;;;5013842;28;20080;-86
2023/04/06 07:12:53;;;;;;;15.93;12.67;;;3.60;99.90;;;;;;4986355;28;20401;-86
2023/04/06 07:15:19;;;;;;;17.90;13.50;;;3.70;99.90;;;;;;4994414;28;20088;-86
2023/04/06 07:17:45;;;;;;;16.57;13.13;;;3.80;99.90;;;;;;4993944;28;20044;-86
2023/04/06 07:20:11;;;;;;;20.17;13.20;;;3.90;99.90;;;;;;4980877;28;20489;-86
2023/04/06 07:22:48;;;;;;;17.23;13.77;;;4.00;99.90;;;;;;4997052;28;20087;-86
2023/04/06 07:25:13;;;;;;;16.60;13.13;;;4.10;99.90;;;;;;5003228;28;20050;-86
2023/04/06 07:27:39;;;;;;;16.63;13.73;;;4.20;99.90;;;;;;4965832;28;20383;-85
2023/04/06 07:30:06;;;;;;;16.77;13.23;;;4.20;99.90;;;;;;4972458;28;20066;-86
2023/04/06 07:32:34;;;;;;;16.87;13.63;;;4.30;99.90;;;;;;5006605;28;20104;-85
2023/04/06 07:35:00;;;;;;;16.13;13.30;;;4.40;99.90;;;;;;4978656;28;20046;-86
2023/04/06 07:37:25;;;;;;;15.83;13.87;;;4.60;99.90;;;;;;4977821;28;20189;-85
2023/04/06 07:39:51;;;;;;;19.93;13.00;;;4.60;99.90;;;;;;4961508;28;20530;-86
2023/04/06 07:42:17;;;;;;;15.63;13.77;;;4.80;99.90;;;;;;4986252;28;20042;-86
2023/04/06 07:44:42;;;;;;;19.40;14.23;;;4.80;99.90;;;;;;5013455;28;20057;-86
2023/04/06 07:47:08;;;;;;;16.67;13.80;;;4.90;99.90;;;;;;4968190;28;20049;-86
2023/04/06 07:49:34;;;;;;;17.60;14.00;;;5.10;99.90;;;;;;4972958;28;20049;-86
2023/04/06 07:52:02;;;;;;;16.73;14.00;;;5.20;99.90;;;;;;5004378;28;20070;-86
2023/04/06 07:54:28;;;;;;;16.13;13.53;;;5.30;99.90;;;;;;4985507;28;20073;-86
2023/04/06 07:56:54;;;;;;;19.90;14.30;;;5.50;99.90;;;;;;4965979;28;20139;-85
2023/04/06 07:59:20;;;;;;;18.60;14.07;;;5.60;99.90;;;;;;4978944;28;20532;-85
2023/04/06 08:01:45;;;;;;;17.03;13.70;;;5.70;99.90;;;;;;4983921;28;20048;-85
2023/04/06 08:04:11;;;;;;;15.70;13.40;;;5.80;99.90;;;;;;4979885;28;20045;-85
2023/04/06 08:06:37;;;;;;;16.23;13.77;;;5.90;99.90;;;;;;4995655;28;20046;-85
2023/04/06 08:09:03;;;;;;;17.17;13.73;;;6.10;99.90;;;;;;4968854;28;20042;-85
2023/04/06 08:11:29;;;;;;;18.17;13.90;;;6.20;99.90;;;;;;4961090;28;20073;-85
2023/04/06 08:13:57;;;;;;;19.10;13.73;;;6.30;99.90;;;;;;4975745;28;20061;-85
2023/04/06 08:16:24;;;;;;;17.67;14.03;;;6.50;99.90;;;;;;4982708;28;20490;-85
2023/04/06 08:18:49;;;;;;;20.13;13.77;;;6.60;99.90;;;;;;4960534;28;20039;-85
2023/04/06 08:21:15;;;;;;;16.90;13.40;;;6.80;99.90;;;;;;4976266;28;20054;-85
2023/04/06 08:23:41;;;;;;;18.77;13.23;;;6.90;99.90;;;;;;4976096;28;20138;-86
2023/04/06 08:26:07;;;;;;;16.17;13.70;;;7.10;99.90;;;;;;4979963;28;20040;-86
2023/04/06 08:28:34;;;;;;;19.87;13.63;;;7.20;99.90;;;;;;4960022;28;20490;-86
2023/04/06 08:31:06;;;;;;;17.33;13.53;;;7.40;99.90;;;;;;4979650;28;20034;-85
2023/04/06 08:33:35;;;;;;;16.23;13.00;;;7.50;99.90;;;;;;4995883;28;20121;-85
2023/04/06 08:36:10;;;;;;;15.87;13.00;;;7.60;99.90;;;;;;4995697;28;20049;-85
2023/04/06 08:38:36;;;;;;;16.93;14.13;;;7.80;99.90;;;;;;4995660;28;20060;-86
2023/04/06 08:41:13;;;;;;;16.27;12.87;;;7.90;99.90;;;;;;4996226;28;20053;-85
2023/04/06 08:43:46;;;;;;;15.27;13.13;;;8.10;99.90;;;;;;4976338;28;20038;-86
2023/04/06 08:46:12;;;;;;;15.47;12.33;;;8.30;99.90;;;;;;4991351;28;20329;-85
2023/04/06 08:48:40;;;;;;;16.23;13.20;;;8.40;99.90;;;;;;4976411;28;20042;-85
2023/04/06 08:51:06;;;;;;;18.90;12.93;;;8.60;99.90;;;;;;4987731;28;20053;-86
2023/04/06 08:53:32;;;;;;;15.80;12.67;;;8.80;99.90;;;;;;4990805;28;20034;-86
2023/04/06 08:55:59;;;;;;;15.23;12.70;;;9.00;99.90;;;;;;4971145;28;20080;-85
2023/04/06 08:58:27;;;;;;;15.10;11.70;;;9.10;99.90;;;;;;4989556;28;20509;-86
2023/04/06 09:00:53;;;;;;;16.20;12.10;;;9.30;99.90;;;;;;4991619;28;20108;-86
2023/04/06 09:03:21;;;;;;;19.30;12.10;;;9.40;99.90;;;;;;4964730;28;20046;-84
2023/04/06 09:05:47;;;;;;;17.47;12.37;;;9.60;99.90;;;;;;4982952;28;20096;-85
2023/04/06 09:08:13;;;;;;;20.40;12.57;;;9.60;99.90;;;;;;5007501;28;20107;-85
2023/04/06 09:10:42;;;;;;;16.77;12.97;;;9.70;99.90;;;;;;4964829;28;20046;-85
2023/04/06 09:13:08;;;;;;;17.03;13.10;;;9.80;99.90;;;;;;4987424;28;20046;-86
2023/04/06 09:15:35;;;;;;;15.37;12.17;;;9.90;99.90;;;;;;4979894;28;20438;-85
2023/04/06 09:18:01;;;;;;;18.30;13.23;;;10.10;99.90;;;;;;4945179;28;20145;-84
2023/04/06 09:20:28;;;;;;;16.97;12.67;;;10.20;99.90;;;;;;4972993;28;20196;-85
2023/04/06 09:22:54;;;;;;;15.23;11.93;;;10.30;99.90;;;;;;4978752;28;20707;-85
2023/04/06 09:25:26;;;;;;;15.67;12.27;;;10.40;99.90;;;;;;4974633;28;20034;-86
2023/04/06 09:28:00;;;;;;;15.57;12.73;;;10.50;99.90;;;;;;4981152;28;20052;-86
2023/04/06 09:30:26;;;;;;;16.47;12.97;;;10.70;99.90;;;;;;4979246;28;20042;-86
2023/04/06 09:32:55;;;;;;;17.47;13.20;;;10.90;99.90;;;;;;4995232;28;20038;-85
2023/04/06 09:35:21;;;;;;;16.60;12.33;;;11.00;99.90;;;;;;4994929;28;20052;-86
2023/04/06 09:37:48;;;;;;;17.83;13.10;;;11.20;99.90;;;;;;4978401;28;20045;-86
2023/04/06 09:40:17;;;;;;;14.90;11.63;;;11.40;99.90;;;;;;4974344;28;20038;-86
2023/04/06 09:42:46;;;;;;;17.27;13.37;;;11.40;99.90;;;;;;4994728;28;20508;-87
2023/04/06 09:45:12;;;;;;;17.80;12.90;;;11.40;99.90;;;;;;4995072;28;20382;-85
2023/04/06 09:47:40;;;;;;;18.63;13.03;;;11.30;99.90;;;;;;4994700;28;20498;-85
2023/04/06 09:50:08;;;;;;;22.03;13.73;;;11.30;99.90;;;;;;4988557;28;20054;-85
2023/04/06 09:52:50;;;;;;;17.83;13.27;;;11.20;99.90;;;;;;4988283;28;20049;-86
2023/04/06 09:55:28;;;;;;;20.47;15.33;;;11.20;99.90;;;;;;5009495;28;20050;-87
2023/04/06 09:58:06;;;;;;;18.97;13.70;;;11.20;99.90;;;;;;4991212;28;20070;-86
2023/04/06 10:00:44;;;;;;;20.07;14.63;;;11.20;92.80;;;;;;5002491;28;20045;-85
2023/04/06 10:03:28;;;;;;;21.63;15.40;;;11.10;91.30;;;;;;5003089;28;20081;-86
2023/04/06 10:06:04;;;;;;;17.67;14.13;;;11.20;80.20;;;;;;5006895;28;20113;-85
2023/04/06 10:08:33;;;;;;;21.57;15.60;;;11.10;85.70;;;;;;5010987;28;20164;-86
2023/04/06 10:11:00;;;;;;;22.77;15.97;;;11.10;85.20;;;;;;5002054;28;20568;-84
2023/04/06 10:13:27;;;;;;;21.93;14.97;;;11.20;87.60;;;;;;4993418;28;20508;-86
2023/04/06 10:15:54;;;;;;;25.13;16.43;;;11.30;87.60;;;;;;4982762;28;20043;-85
2023/04/06 10:18:20;;;;;;;27.80;17.37;;;11.40;90.50;;;;;;4999094;28;20042;-86
2023/04/06 10:20:57;;;;;;;23.40;17.60;;;11.50;89.30;;;;;;4978876;28;20494;-86
2023/04/06 10:23:34;;;;;;;24.77;17.03;;;11.40;82.50;;;;;;4976533;28;20061;-86
2023/04/06 10:26:02;;;;;;;23.53;16.53;;;11.60;85.00;;;;;;5007459;28;20080;-86
2023/04/06 10:28:36;;;;;;;23.67;17.57;;;11.70;86.60;;;;;;4990712;28;20050;-85
2023/04/06 10:31:05;;;;;;;25.90;16.37;;;11.80;80.70;;;;;;4999471;28;20128;-86
2023/04/06 10:33:31;;;;;;;21.80;16.27;;;11.90;80.50;;;;;;4964987;28;20129;-85
2023/04/06 10:35:57;;;;;;;23.00;16.40;;;12.10;84.40;;;;;;4975028;28;20125;-85
2023/04/06 10:38:36;;;;;;;22.60;16.93;;;12.20;81.10;;;;;;4984473;28;20046;-85
2023/04/06 10:41:07;;;;;;;33.87;17.97;;;12.30;76.40;;;;;;4990050;28;20046;-88
2023/04/06 10:43:39;;;;;;;24.27;17.33;;;12.30;76.10;;;;;;4974250;28;20050;-87
2023/04/06 10:46:07;;;;;;;24.20;18.10;;;12.30;77.10;;;;;;4974586;28;20359;-84
2023/04/06 10:48:39;;;;;;;23.43;17.20;;;12.40;76.80;;;;;;4991766;28;20058;-86
2023/04/06 10:51:14;;;;;;;25.37;18.13;;;12.40;75.00;;;;;;5003405;28;20463;-84
2023/04/06 10:53:46;;;;;;;24.70;17.37;;;12.40;76.50;;;;;;5009887;28;20038;-85
2023/04/06 10:56:14;;;;;;;27.43;17.80;;;12.40;75.80;;;;;;4988205;28;20081;-85
2023/04/06 10:58:51;;;;;;;23.83;17.30;;;12.40;75.80;;;;;;4980067;28;20093;-85
2023/04/06 11:01:19;;;;;;;25.17;17.53;;;12.40;76.60;;;;;;4986995;28;20042;-85
2023/04/06 11:03:50;;;;;;;25.87;18.00;;;12.40;75.80;;;;;;4997752;28;20037;-85
2023/04/06 11:06:19;;;;;;;24.77;19.00;;;12.60;77.20;;;;;;4986954;28;20092;-84
2023/04/06 11:08:45;;;;;;;25.13;18.13;;;12.60;74.60;;;;;;4979554;28;20073;-86
2023/04/06 11:11:15;;;;;;;28.40;19.07;;;12.60;75.60;;;;;;4967099;28;20070;-86
2023/04/06 11:13:46;;;;;;;25.40;18.90;;;12.60;76.40;;;;;;5009039;28;20050;-85
2023/04/06 11:16:40;;;;;;;28.98;20.35;;;12.50;74.80;;;;;;4990841;28;20046;-86
2023/04/06 11:19:06;;;;;;;29.60;20.03;;;12.40;74.90;;;;;;4997670;28;20104;-84
2023/04/06 11:21:48;;;;;;;29.30;19.93;;;12.50;74.70;;;;;;4978082;28;20041;-85
2023/04/06 11:24:17;;;;;;;25.95;19.95;;;12.70;75.20;;;;;;4981354;28;20103;-85
2023/04/06 11:26:57;;;;;;;29.67;20.63;;;12.90;74.40;;;;;;4980081;28;20386;-86
2023/04/06 11:29:26;;;;;;;31.50;20.52;;;13.00;73.90;;;;;;4988456;28;20085;-86
2023/04/06 11:32:03;;;;;;;29.37;19.83;;;13.20;73.90;;;;;;5008413;28;20038;-85
2023/04/06 11:34:30;;;;;;;32.73;22.70;;;13.40;74.10;;;;;;5000038;28;20045;-85
2023/04/06 11:37:01;;;;;;;36.72;23.00;;;13.40;73.00;;;;;;4977272;28;20129;-86
2023/04/06 11:39:29;;;;;;;32.17;22.10;;;13.40;71.80;;;;;;4977103;28;20042;-85
2023/04/06 11:42:00;;;;;;;32.67;22.27;;;13.40;71.90;;;;;;4982089;28;20103;-85
2023/04/06 11:44:40;;;;;;;30.30;21.17;;;13.20;71.00;;;;;;4989223;28;20056;-85
2023/04/06 11:47:08;;;;;;;28.83;21.77;;;13.30;72.10;;;;;;4989635;28;20054;-85
2023/04/06 11:49:38;;;;;;;30.45;22.98;;;13.30;72.70;;;;;;5001675;28;20580;-86
2023/04/06 11:52:17;;;;;;;33.13;22.20;;;13.40;70.40;;;;;;4969461;28;20053;-86
2023/04/06 11:54:44;;;;;;;31.00;21.27;;;13.50;70.60;;;;;;4999352;28;20038;-85
2023/04/06 11:57:09;;;;;;;32.33;22.27;;;13.50;72.30;;;;;;4984714;28;20065;-85
2023/04/06 11:59:35;;;;;;;33.17;22.90;;;13.50;72.80;;;;;;4989293;28;20578;-85
2023/04/06 12:02:02;;;;;;;32.45;22.58;;;13.50;70.90;;;;;;4984807;28;20132;-85
2023/04/06 12:04:31;;;;;;;30.30;22.80;;;13.40;70.80;;;;;;4973317;28;20060;-85
2023/04/06 12:06:57;;;;;;;30.00;22.58;;;13.30;70.90;;;;;;5016080;28;20049;-85
2023/04/06 12:09:23;;;;;;;30.98;23.25;;;13.30;71.80;;;;;;4999742;28;20121;-86
2023/04/06 12:11:50;;;;;;;32.35;22.88;;;13.30;71.60;;;;;;4977844;28;20161;-87
2023/04/06 12:14:15;;;;;;;31.33;21.85;;;13.10;70.10;;;;;;4980346;28;20492;-84
2023/04/06 12:16:42;;;;;;;31.65;22.85;;;13.10;70.20;;;;;;4996069;28;20045;-86
2023/04/06 12:19:07;;;;;;;33.50;21.77;;;13.00;70.30;;;;;;4996502;28;20038;-85
2023/04/06 12:21:37;;;;;;;30.65;23.27;;;12.90;70.00;;;;;;4979912;28;20528;-85
2023/04/06 12:24:03;;;;;;;32.67;22.75;;;12.90;70.40;;;;;;4979643;28;20088;-85
2023/04/06 12:26:30;;;;;;;31.20;22.83;;;12.90;70.90;;;;;;4983456;28;20192;-84
2023/04/06 12:28:56;;;;;;;30.00;22.48;;;12.90;70.90;;;;;;4982372;28;20166;-86
2023/04/06 12:31:23;;;;;;;30.88;21.92;;;13.00;71.30;;;;;;4984645;28;20033;-86
2023/04/06 12:33:50;;;;;;;34.53;22.92;;;13.10;70.90;;;;;;4980790;28;20038;-85
2023/04/06 12:36:22;;;;;;;33.00;22.92;;;13.10;70.30;;;;;;4978968;28;20049;-85
2023/04/06 12:38:48;;;;;;;32.80;22.60;;;13.20;70.00;;;;;;5011088;28;20068;-85